createdAt,value
2018-11-25T00:04:35.575Z,70.40
2018-11-25T00:09:54.125Z,59.65
2018-11-25T00:15:12.693Z,63.63
2018-11-25T00:20:31.320Z,66.80
2018-11-25T00:25:49.837Z,57.17
2018-11-25T00:31:09.711Z,60.93
2018-11-25T00:36:27.005Z,60.57
2018-11-25T00:41:45.604Z,52.13
2018-11-25T00:47:04.187Z,60.67
2018-11-25T00:52:22.752Z,66.70
2018-11-25T00:57:41.315Z,56.60
2018-11-25T01:02:59.805Z,70.40
2018-11-25T01:08:18.329Z,70.93
2018-11-25T01:13:36.900Z,79.87
2018-11-25T01:18:55.468Z,86.57
2018-11-25T01:24:14.035Z,93.00
2018-11-25T01:29:32.532Z,99.03
2018-11-25T01:34:51.716Z,103.78
2018-11-25T01:40:13.256Z,102.97
2018-11-25T01:45:31.795Z,107.35
2018-11-25T01:50:50.364Z,92.27
2018-11-25T01:56:08.858Z,108.50
2018-11-25T02:01:27.467Z,89.40
2018-11-25T02:06:46.087Z,79.20
2018-11-25T02:12:04.693Z,74.13
2018-11-25T02:17:23.228Z,65.23
2018-11-25T02:22:41.745Z,55.93
2018-11-25T02:28:00.250Z,70.73
2018-11-25T02:33:18.734Z,74.03
2018-11-25T02:38:37.227Z,77.00
2018-11-25T02:43:55.814Z,74.43
2018-11-25T02:49:14.369Z,71.77
2018-11-25T02:54:32.880Z,82.13
2018-11-25T02:59:52.012Z,84.17
2018-11-25T03:05:10.586Z,88.47
2018-11-25T03:10:29.191Z,85.83
2018-11-25T03:15:47.748Z,94.13
2018-11-25T03:21:06.355Z,73.30
2018-11-25T03:26:24.878Z,69.37
2018-11-25T03:36:54.390Z,68.43
2018-11-25T03:42:12.887Z,72.53
2018-11-25T03:47:31.424Z,74.53
2018-11-25T03:52:50.044Z,63.80
2018-11-25T03:58:08.816Z,82.97
2018-11-25T04:03:27.327Z,85.10
2018-11-25T04:08:45.840Z,75.60
2018-11-25T04:14:04.556Z,62.67
2018-11-25T04:19:23.141Z,73.53
2018-11-25T04:24:41.669Z,77.13
2018-11-25T04:30:00.237Z,83.83
2018-11-25T04:35:18.774Z,65.40
2018-11-25T04:40:37.379Z,71.93
2018-11-25T04:45:55.924Z,69.53
2018-11-25T04:51:14.471Z,68.33
2018-11-25T04:56:33.058Z,68.30
2018-11-25T05:01:51.568Z,68.83
2018-11-25T05:07:10.144Z,74.27
2018-11-25T05:12:28.652Z,83.37
2018-11-25T05:17:47.145Z,69.53
2018-11-25T05:23:06.233Z,90.77
2018-11-25T05:28:24.881Z,76.87
2018-11-25T05:33:43.433Z,97.93
2018-11-25T05:39:03.020Z,75.87
2018-11-25T05:44:21.572Z,93.73
2018-11-25T05:49:40.174Z,86.63
2018-11-25T05:54:58.692Z,77.50
2018-11-25T06:00:21.153Z,88.10
2018-11-25T06:05:40.712Z,165.93
2018-11-25T06:10:59.264Z,82.83
2018-11-25T06:16:17.829Z,89.70
2018-11-25T06:21:36.529Z,97.57
2018-11-25T06:26:55.426Z,123.17
2018-11-25T06:32:13.984Z,73.63
2018-11-25T06:37:32.576Z,98.83
2018-11-25T06:42:51.891Z,134.40
2018-11-25T06:48:10.508Z,76.77
2018-11-25T06:53:29.051Z,77.23
2018-11-25T06:58:48.577Z,80.20
2018-11-25T07:04:07.302Z,84.00
2018-11-25T07:09:25.898Z,143.00
2018-11-25T07:14:44.568Z,84.17
2018-11-25T07:20:03.149Z,86.05
2018-11-25T07:25:22.908Z,103.05
2018-11-25T07:30:42.137Z,74.77
2018-11-25T07:36:00.709Z,82.87
2018-11-25T07:41:19.253Z,77.80
2018-11-25T07:46:37.881Z,73.03
2018-11-25T07:51:56.758Z,76.10
2018-11-25T07:57:15.371Z,85.07
2018-11-25T08:02:36.815Z,71.80
2018-11-25T08:07:53.236Z,74.20
2018-11-25T08:13:11.765Z,71.80
2018-11-25T08:18:30.388Z,73.03
2018-11-25T08:23:48.905Z,70.93
2018-11-25T08:29:07.453Z,90.87
2018-11-25T08:34:26.033Z,88.80
2018-11-25T08:39:44.664Z,91.60
2018-11-25T08:45:03.221Z,92.53
2018-11-25T08:50:21.916Z,97.20
2018-11-25T08:55:40.567Z,111.97
2018-11-25T09:00:59.190Z,131.83
2018-11-25T09:06:17.781Z,120.77
2018-11-25T09:11:36.396Z,99.47
2018-11-25T09:16:54.991Z,105.97
2018-11-25T09:22:13.564Z,81.33
2018-11-25T09:27:32.124Z,83.83
2018-11-25T09:32:50.663Z,92.47
2018-11-25T09:38:09.183Z,74.60
2018-11-25T09:43:27.954Z,83.63
2018-11-25T09:48:46.480Z,82.23
2018-11-25T09:54:05.081Z,81.93
2018-11-25T09:59:23.697Z,95.43
2018-11-25T10:04:42.232Z,92.53
2018-11-25T10:10:00.803Z,97.93
2018-11-25T10:15:23.015Z,99.35
2018-11-25T10:20:41.589Z,101.90
2018-11-25T10:26:00.111Z,121.00
2018-11-25T10:31:18.608Z,110.27
2018-11-25T10:36:37.233Z,98.93
2018-11-25T10:41:55.761Z,90.67
2018-11-25T10:47:14.426Z,100.43
2018-11-25T10:52:32.972Z,102.17
2018-11-25T10:57:52.528Z,117.47
2018-11-25T11:03:16.536Z,137.63
2018-11-25T11:08:35.067Z,138.20
2018-11-25T11:13:53.668Z,149.17
2018-11-25T11:19:12.200Z,137.13
2018-11-25T11:24:30.882Z,138.53
2018-11-25T11:29:49.435Z,129.10
2018-11-25T11:35:08.646Z,120.03
2018-11-25T11:40:27.166Z,107.50
2018-11-25T11:45:45.644Z,100.00
2018-11-25T11:51:04.157Z,97.17
2018-11-25T11:56:23.264Z,89.47
2018-11-25T12:01:42.809Z,72.30
2018-11-25T12:07:01.334Z,73.33
2018-11-25T12:12:19.863Z,71.17
2018-11-25T12:17:38.348Z,60.50
2018-11-25T12:22:57.317Z,61.37
2018-11-25T12:28:15.828Z,48.70
2018-11-25T12:33:36.305Z,52.63
2018-11-25T12:38:54.879Z,55.93
2018-11-25T12:44:13.422Z,58.73
2018-11-25T12:49:31.944Z,57.93
2018-11-25T12:54:50.549Z,58.37
2018-11-25T13:00:44.598Z,64.07
2018-11-25T13:06:03.195Z,46.37
2018-11-25T13:11:21.734Z,56.83
2018-11-25T13:16:40.310Z,61.77
2018-11-25T13:21:58.916Z,59.53
2018-11-25T13:27:17.397Z,57.53
2018-11-25T13:32:35.888Z,60.28
2018-11-25T13:37:54.470Z,57.17
2018-11-25T13:43:13.017Z,70.23
2018-11-25T13:48:31.582Z,76.87
2018-11-25T13:53:50.084Z,78.37
2018-11-25T13:59:08.565Z,78.47
2018-11-25T14:04:27.102Z,75.73
2018-11-25T14:09:45.725Z,77.30
2018-11-25T14:15:04.243Z,78.35
2018-11-25T14:20:22.848Z,71.50
2018-11-25T14:25:41.471Z,78.87
2018-11-25T14:31:00.105Z,71.17
2018-11-25T14:36:18.660Z,72.50
2018-11-25T14:41:43.680Z,63.63
2018-11-25T14:47:02.188Z,90.30
2018-11-25T14:52:20.720Z,86.73
2018-11-25T14:57:39.629Z,98.37
2018-11-25T15:03:00.729Z,96.40
2018-11-25T15:08:21.140Z,89.80
2018-11-25T15:13:39.625Z,91.97
2018-11-25T15:18:58.279Z,85.93
2018-11-25T15:24:16.901Z,91.43
2018-11-25T15:29:35.468Z,96.50
2018-11-25T15:34:53.983Z,97.13
2018-11-25T15:40:18.154Z,104.80
2018-11-25T15:45:36.768Z,100.27
2018-11-25T15:50:55.431Z,93.43
2018-11-25T15:56:14.237Z,85.30
2018-11-25T16:01:32.859Z,79.00
2018-11-25T16:06:51.388Z,79.60
2018-11-25T16:12:09.909Z,86.75
2018-11-25T16:17:28.729Z,100.27
2018-11-25T16:22:48.361Z,104.23
2018-11-25T16:28:12.028Z,117.23
2018-11-25T16:33:30.608Z,107.97
2018-11-25T16:38:49.295Z,111.75
2018-11-25T16:44:07.919Z,115.37
2018-11-25T16:49:26.582Z,102.27
2018-11-25T16:54:45.217Z,96.10
2018-11-25T17:00:03.912Z,89.10
2018-11-25T17:05:25.012Z,79.47
2018-11-25T17:10:43.547Z,73.97
2018-11-25T17:16:02.072Z,70.63
2018-11-25T17:21:20.794Z,63.73
2018-11-25T17:26:39.393Z,63.67
2018-11-25T17:31:57.915Z,63.48
2018-11-25T17:37:16.536Z,47.53
2018-11-25T17:42:35.107Z,52.57
2018-11-25T17:47:53.684Z,47.07
2018-11-25T17:53:12.348Z,43.70
2018-11-25T17:58:31.025Z,39.60
2018-11-25T18:03:50.018Z,48.10
2018-11-25T18:09:11.529Z,41.80
2018-11-25T18:14:30.194Z,51.13
2018-11-25T18:19:48.857Z,52.37
2018-11-25T18:25:07.800Z,47.50
2018-11-25T18:30:26.425Z,46.13
2018-11-25T18:35:45.687Z,45.13
2018-11-25T18:41:04.616Z,59.77
2018-11-25T18:46:23.322Z,51.23
2018-11-25T18:51:43.831Z,61.10
2018-11-25T18:57:02.639Z,61.50
2018-11-25T19:02:25.816Z,67.22
2018-11-25T19:07:44.438Z,67.73
2018-11-25T19:13:02.975Z,66.70
2018-11-25T19:18:21.725Z,74.67
2018-11-25T19:23:40.630Z,68.90
2018-11-25T19:28:59.367Z,74.00
2018-11-25T19:34:18.131Z,72.30
2018-11-25T19:39:36.725Z,80.27
2018-11-25T19:44:55.697Z,83.20
2018-11-25T19:50:32.327Z,82.57
2018-11-25T19:55:51.083Z,79.83
2018-11-25T20:01:10.113Z,72.63
2018-11-25T20:06:29.080Z,73.83
2018-11-25T20:11:47.618Z,72.57
2018-11-25T20:17:11.509Z,65.13
2018-11-25T20:22:30.286Z,67.32
2018-11-25T20:27:49.920Z,86.70
2018-11-25T20:33:13.827Z,72.60
2018-11-25T20:38:38.571Z,65.47
2018-11-25T20:43:57.253Z,71.67
2018-11-25T20:49:15.822Z,69.27
2018-11-25T20:54:34.685Z,58.00
2018-11-25T20:59:53.194Z,67.47
2018-11-25T21:05:13.701Z,61.98
2018-11-25T21:10:32.324Z,84.37
2018-11-25T21:15:50.947Z,80.35
2018-11-25T21:21:09.600Z,87.60
2018-11-25T21:26:28.253Z,79.67
2018-11-25T21:31:47.094Z,98.07
2018-11-25T21:37:06.797Z,99.03
2018-11-25T21:42:25.324Z,103.77
2018-11-25T21:47:43.987Z,115.17
2018-11-25T21:53:02.584Z,109.07
2018-11-25T21:58:21.192Z,111.63
2018-11-25T22:03:39.740Z,127.37
2018-11-25T22:08:58.424Z,136.57
2018-11-25T22:14:16.980Z,122.27
2018-11-25T22:19:35.605Z,121.97
2018-11-25T22:24:54.122Z,111.80
2018-11-25T22:30:17.571Z,112.62
2018-11-25T22:35:36.305Z,110.17
2018-11-25T22:40:55.034Z,87.60
2018-11-25T22:46:13.552Z,89.80
2018-11-25T22:51:32.154Z,100.10
2018-11-25T22:56:50.803Z,108.00
2018-11-25T23:02:09.382Z,114.80
2018-11-25T23:07:28.005Z,111.37
2018-11-25T23:12:46.572Z,111.27
2018-11-25T23:18:05.397Z,108.87
2018-11-25T23:23:24.035Z,114.00
2018-11-25T23:28:42.615Z,104.03
2018-11-25T23:34:01.165Z,88.83
2018-11-25T23:39:20.245Z,98.17
2018-11-25T23:44:38.845Z,88.17
2018-11-25T23:49:57.529Z,94.90
2018-11-25T23:55:16.243Z,91.22
